Time;durP1;ratioP1;P1;durP2;ratioP2;P2;SDS_P1;SDS_P2;PMS_P1;PMS_P2;Temp;Humidity;BMP_temperature;BMP_pressure;BME280_temperature;BME280_humidity;BME280_pressure;Samples;Min_cycle;Max_cycle;Signal;HPM_P1;HPM_P2
2022/05/23 06:53:55;;;;;;;8.88;4.15;;;34.60;97.80;;;;;;4804165;29;20081;-84
2022/05/23 07:34:56;;;;;;;11.50;3.85;;;38.60;84.20;;;;;;4913335;29;20039;-85
2022/05/23 08:04:55;;;;;;;;;;;;;;;;;;;;;
2022/05/23 08:14:12;;;;;;;26.92;4.57;;;34.80;85.30;;;;;;4933589;29;20058;-81
2022/05/23 08:16:38;;;;;;;5.75;4.03;;;35.20;86.50;;;;;;4941194;28;20495;-84
2022/05/23 08:19:06;;;;;;;26.08;4.05;;;35.30;85.50;;;;;;5034956;28;20030;-84
2022/05/23 08:21:52;;;;;;;15.18;4.22;;;34.70;86.60;;;;;;5034469;28;20026;-85
2022/05/23 08:24:33;;;;;;;10.02;4.32;;;34.00;87.80;;;;;;5034504;28;20477;-84
2022/05/23 08:27:00;;;;;;;7.45;4.28;;;34.00;88.50;;;;;;5035839;28;20502;-82
2022/05/23 08:29:31;;;;;;;13.95;4.30;;;33.30;88.50;;;;;;5035096;28;20049;-81
2022/05/23 08:32:00;;;;;;;11.52;4.18;;;32.80;90.60;;;;;;5035319;28;20049;-83
2022/05/23 08:34:27;;;;;;;8.73;4.15;;;32.80;90.50;;;;;;5035987;28;20563;-83
2022/05/23 08:36:53;;;;;;;8.63;4.13;;;33.20;90.60;;;;;;5017725;28;20388;-83
2022/05/23 08:39:28;;;;;;;11.18;4.60;;;33.50;90.00;;;;;;5035129;28;20045;-84
2022/05/23 08:41:57;;;;;;;11.95;4.10;;;33.20;90.30;;;;;;5035794;28;20053;-83
2022/05/23 08:48:07;;;;;;;13.38;4.78;;;33.60;90.00;;;;;;5016655;28;20030;-82
2022/05/23 08:51:46;;;;;;;9.32;4.05;;;34.10;88.10;;;;;;5034719;28;20391;-83
2022/05/23 08:55:09;;;;;;;6.32;4.10;;;34.50;87.30;;;;;;4954825;28;20030;-81
2022/05/23 08:58:21;;;;;;;8.15;4.22;;;35.00;86.40;;;;;;4987962;28;20099;-82
2022/05/23 09:01:21;;;;;;;7.78;4.40;;;35.00;85.90;;;;;;5015466;28;20087;-84
2022/05/23 09:04:24;;;;;;;8.60;3.95;;;35.20;85.60;;;;;;5033281;28;20493;-81
2022/05/23 09:06:54;;;;;;;6.68;3.70;;;35.40;84.60;;;;;;5031948;28;20183;-85
2022/05/23 09:09:33;;;;;;;7.10;4.22;;;35.70;84.00;;;;;;5033907;28;20029;-83
2022/05/23 09:20:06;;;;;;;5.43;3.92;;;35.00;85.60;;;;;;4996836;28;20046;-81
2022/05/23 09:22:54;;;;;;;11.38;4.80;;;34.90;85.30;;;;;;4954537;28;20063;-81
2022/05/23 09:26:11;;;;;;;15.68;5.82;;;34.90;86.20;;;;;;4954001;28;20043;-82
2022/05/23 09:28:58;;;;;;;10.20;4.63;;;34.60;85.60;;;;;;5033018;28;20061;-81
2022/05/23 09:31:37;;;;;;;12.10;4.75;;;34.50;86.50;;;;;;5023668;28;20021;-83
2022/05/23 09:34:03;;;;;;;10.38;4.75;;;34.20;87.70;;;;;;5031986;28;20040;-82
2022/05/23 09:36:36;;;;;;;16.90;4.95;;;33.90;88.00;;;;;;5030064;28;20033;-81
2022/05/23 09:39:24;;;;;;;13.23;4.82;;;33.80;89.40;;;;;;5028976;28;20032;-85
2022/05/23 09:49:13;;;;;;;21.23;5.57;;;33.50;91.20;;;;;;4954799;28;20050;-82
2022/05/23 09:52:36;;;;;;;19.60;5.93;;;33.10;92.10;;;;;;4954113;28;20074;-82
2022/05/23 09:55:31;;;;;;;13.55;5.20;;;33.00;92.20;;;;;;4969118;28;20035;-85
2022/05/23 10:01:38;;;;;;;16.15;6.53;;;33.40;91.70;;;;;;4946244;28;20039;-89
2022/05/23 10:04:31;;;;;;;14.25;5.78;;;33.60;91.20;;;;;;4970272;28;20031;-87
2022/05/23 10:06:59;;;;;;;13.02;5.63;;;33.80;91.10;;;;;;4929513;28;20027;-82
2022/05/23 10:10:17;;;;;;;13.60;5.32;;;33.80;91.10;;;;;;4971230;28;20428;-84
2022/05/23 10:12:49;;;;;;;14.00;5.20;;;33.70;90.90;;;;;;5004106;28;20041;-83
2022/05/23 10:15:28;;;;;;;16.38;4.97;;;33.40;91.00;;;;;;5016453;28;20424;-85
2022/05/23 10:18:18;;;;;;;14.65;5.22;;;33.30;91.40;;;;;;5011658;28;20060;-84
2022/05/23 10:24:21;;;;;;;13.10;4.80;;;33.70;90.60;;;;;;4943505;29;20031;-79
2022/05/23 10:26:53;;;;;;;10.10;5.65;;;33.90;90.00;;;;;;4940946;28;20037;-81
2022/05/23 10:37:08;;;;;;;;;;;;;;;;;;;;;
2022/05/23 10:44:02;;;;;;;35.75;5.38;;;34.20;88.20;;;;;;4854297;29;20060;-84
2022/05/23 10:53:41;;;;;;;15.40;4.97;;;34.10;88.80;;;;;;4894675;29;20524;-85
2022/05/23 10:56:50;;;;;;;12.45;5.20;;;33.80;89.20;;;;;;4893996;29;20068;-82
2022/05/23 11:06:40;;;;;;;12.68;4.70;;;33.20;90.60;;;;;;4814810;29;20116;-82
2022/05/23 11:09:35;;;;;;;10.50;4.90;;;33.00;90.40;;;;;;4841363;29;20110;-86
2022/05/23 11:12:53;;;;;;;25.75;4.88;;;32.90;90.80;;;;;;4837632;29;20052;-82
2022/05/23 11:15:31;;;;;;;14.40;4.95;;;32.70;91.20;;;;;;4850358;29;20072;-85
2022/05/23 11:18:24;;;;;;;11.15;5.07;;;32.70;91.60;;;;;;4847818;29;20082;-81
2022/05/23 11:21:00;;;;;;;11.15;5.05;;;32.80;91.70;;;;;;4905209;29;20051;-81
2022/05/23 11:24:03;;;;;;;12.15;4.63;;;32.80;91.40;;;;;;4923017;29;20040;-86
2022/05/23 11:35:30;;;;;;;12.48;5.85;;;32.20;92.40;;;;;;5010706;28;20045;-84
2022/05/23 11:38:06;;;;;;;14.15;6.05;;;31.90;93.10;;;;;;5010137;28;20030;-78
2022/05/23 11:41:20;;;;;;;;;;;;;;;;;;;;;
2022/05/23 11:43:49;;;;;;;19.10;6.30;;;31.10;94.30;;;;;;5011134;28;20394;-86
2022/05/23 11:47:31;;;;;;;11.02;5.60;;;30.50;95.70;;;;;;5011503;28;20044;-80
2022/05/23 12:04:44;;;;;;;8.85;5.03;;;30.30;97.40;;;;;;4863902;29;20032;-82
2022/05/23 12:07:42;;;;;;;17.38;6.07;;;30.20;98.40;;;;;;4946796;28;20407;-82
2022/05/23 12:10:28;;;;;;;10.70;6.20;;;30.10;98.60;;;;;;4994333;28;20026;-81
2022/05/23 12:13:30;;;;;;;13.90;5.88;;;30.10;98.20;;;;;;5008398;28;20385;-84
2022/05/23 12:16:20;;;;;;;9.48;6.57;;;30.00;99.00;;;;;;5018455;28;20116;-81
2022/05/23 12:19:20;;;;;;;19.35;6.30;;;30.00;99.90;;;;;;5031300;28;20444;-80
2022/05/23 12:22:30;;;;;;;11.70;6.15;;;29.90;99.90;;;;;;5015526;28;20032;-83
2022/05/23 12:25:41;;;;;;;9.43;6.63;;;29.90;99.90;;;;;;5021288;28;20067;-82
2022/05/23 12:28:59;;;;;;;17.50;6.18;;;29.30;99.90;;;;;;5030399;28;20037;-82
2022/05/23 12:31:41;;;;;;;11.55;6.53;;;29.20;99.90;;;;;;4940965;28;20389;-86
2022/05/23 12:38:03;;;;;;;17.35;6.38;;;29.20;99.90;;;;;;5008128;28;20029;-83
2022/05/23 12:41:02;;;;;;;15.60;5.63;;;29.10;99.90;;;;;;5032915;28;20045;-83
2022/05/23 12:43:49;;;;;;;13.07;6.13;;;29.10;99.90;;;;;;5033936;28;20034;-83
2022/05/23 12:46:42;;;;;;;15.45;6.10;;;28.90;99.90;;;;;;5031035;28;20117;-80
2022/05/23 12:50:01;;;;;;;16.38;6.43;;;28.80;99.90;;;;;;5034139;28;20052;-81
2022/05/23 12:53:35;;;;;;;;;;;;;;;;;;;;;
2022/05/23 12:56:52;;;;;;;25.70;5.93;;;28.90;99.90;;;;;;5015827;28;20104;-87
2022/05/23 12:59:52;;;;;;;17.65;5.55;;;28.90;99.90;;;;;;5034411;28;20379;-87
2022/05/23 13:02:48;;;;;;;11.57;5.28;;;29.00;99.90;;;;;;5034419;28;20109;-87
2022/05/23 13:05:44;;;;;;;15.02;5.78;;;29.10;99.90;;;;;;5016810;28;20041;-81
2022/05/23 13:12:14;;;;;;;23.05;5.68;;;29.00;99.90;;;;;;4973548;28;20126;-85
2022/05/23 13:15:54;;;;;;;15.20;4.82;;;29.10;99.90;;;;;;5034379;28;20056;-84
2022/05/23 13:24:13;;;;;;;9.65;5.13;;;29.10;99.90;;;;;;5032051;28;20080;-86
2022/05/23 13:26:50;;;;;;;7.63;4.20;;;28.90;99.90;;;;;;5028717;28;20041;-87
2022/05/23 13:29:16;;;;;;;30.98;5.05;;;28.90;99.90;;;;;;5032187;28;20025;-80
2022/05/23 13:31:43;;;;;;;15.52;5.28;;;28.80;99.90;;;;;;5034489;28;20398;-88
2022/05/23 13:34:14;;;;;;;8.98;4.75;;;28.90;99.90;;;;;;5033494;28;20827;-86
2022/05/23 13:37:24;;;;;;;;;;;;;;;;;;;;;
2022/05/23 13:40:24;;;;;;;;;;;;;;;;;;;;;
2022/05/23 13:43:31;;;;;;;16.23;4.90;;;29.10;99.90;;;;;;4953013;28;20034;-85
2022/05/23 13:46:09;;;;;;;17.67;4.97;;;29.10;99.90;;;;;;5035926;28;20033;-80
2022/05/23 13:48:51;;;;;;;16.77;4.97;;;29.00;99.90;;;;;;5040734;28;20387;-82
2022/05/23 13:51:38;;;;;;;16.75;4.70;;;29.00;99.90;;;;;;5032606;28;20087;-80
2022/05/23 13:54:36;;;;;;;11.02;4.95;;;28.90;99.90;;;;;;5017587;28;20120;-84
2022/05/23 13:57:12;;;;;;;16.45;4.82;;;28.80;99.90;;;;;;5029093;28;20037;-80
2022/05/23 14:00:00;;;;;;;18.77;6.03;;;28.70;99.90;;;;;;5032937;28;20367;-83
2022/05/23 14:02:51;;;;;;;12.32;5.10;;;28.70;99.90;;;;;;5033332;28;20677;-81
2022/05/23 14:05:26;;;;;;;16.48;5.18;;;28.70;99.90;;;;;;5032483;28;20572;-80
2022/05/23 14:07:57;;;;;;;8.20;4.35;;;28.70;99.90;;;;;;5032617;28;20079;-80
2022/05/23 14:10:45;;;;;;;14.15;5.43;;;28.70;99.90;;;;;;5032759;28;20040;-82
2022/05/23 14:13:14;;;;;;;15.43;5.05;;;28.50;99.90;;;;;;5032715;28;20385;-81
2022/05/23 14:15:52;;;;;;;7.40;4.35;;;28.50;99.90;;;;;;5031583;28;20038;-81
2022/05/23 14:18:18;;;;;;;9.60;4.57;;;28.60;99.90;;;;;;5030521;28;20026;-84
2022/05/23 14:20:48;;;;;;;16.02;5.35;;;28.60;99.90;;;;;;5031303;28;20082;-84
2022/05/23 14:23:17;;;;;;;15.73;5.28;;;28.50;99.90;;;;;;5031741;28;20022;-82
2022/05/23 14:25:54;;;;;;;13.55;4.88;;;28.40;99.90;;;;;;5026425;28;20374;-82
2022/05/23 14:28:27;;;;;;;15.52;4.72;;;28.40;99.90;;;;;;5030730;28;20069;-82
2022/05/23 14:31:04;;;;;;;16.52;5.32;;;28.30;99.90;;;;;;5031467;28;20094;-80
2022/05/23 14:33:35;;;;;;;22.33;3.65;;;28.30;99.90;;;;;;5031024;28;20042;-82
2022/05/23 14:36:10;;;;;;;10.45;4.00;;;28.40;99.90;;;;;;5012540;28;20041;-81
2022/05/23 14:38:51;;;;;;;8.43;4.45;;;28.40;99.90;;;;;;5031607;28;20030;-85
2022/05/23 14:42:04;;;;;;;16.23;4.88;;;28.40;99.90;;;;;;5031932;28;20065;-82
2022/05/23 14:44:32;;;;;;;14.50;4.68;;;28.40;99.90;;;;;;5031115;28;20444;-83
2022/05/23 14:47:01;;;;;;;15.30;5.38;;;28.30;99.90;;;;;;5032165;28;20088;-85
2022/05/23 14:49:32;;;;;;;15.13;4.60;;;28.30;99.90;;;;;;5031193;28;20034;-81
2022/05/23 14:52:10;;;;;;;16.55;4.55;;;28.20;99.90;;;;;;5012614;28;20068;-80
2022/05/23 15:00:38;;;;;;;14.80;4.57;;;28.20;99.90;;;;;;5030933;28;20088;-86
2022/05/23 15:03:22;;;;;;;15.10;5.13;;;28.10;99.90;;;;;;5029188;28;20470;-85
2022/05/23 15:05:55;;;;;;;18.67;4.45;;;28.00;99.90;;;;;;5012460;28;20397;-80
2022/05/23 15:08:23;;;;;;;13.32;4.65;;;28.00;99.90;;;;;;5030677;28;20060;-86
2022/05/23 15:10:51;;;;;;;10.75;5.13;;;28.00;99.90;;;;;;5031519;28;20512;-88
2022/05/23 15:13:20;;;;;;;12.35;5.10;;;28.00;99.90;;;;;;5031747;28;20109;-87
2022/05/23 15:15:46;;;;;;;10.75;4.35;;;27.90;99.90;;;;;;5016954;28;20087;-80
2022/05/23 15:18:15;;;;;;;13.45;4.60;;;27.90;99.90;;;;;;5012394;28;20033;-80
2022/05/23 15:20:41;;;;;;;18.02;5.18;;;27.90;99.90;;;;;;5012235;28;20030;-80
2022/05/23 15:23:09;;;;;;;19.13;5.57;;;27.90;99.90;;;;;;5011838;28;20060;-80
2022/05/23 15:25:35;;;;;;;18.92;4.93;;;27.80;99.90;;;;;;5011257;28;20064;-79
2022/05/23 15:28:02;;;;;;;9.30;4.55;;;27.80;99.90;;;;;;5010989;28;20088;-85
2022/05/23 15:30:30;;;;;;;21.23;4.88;;;27.80;99.90;;;;;;5010598;28;20053;-80
2022/05/23 15:32:58;;;;;;;15.23;4.93;;;27.80;99.90;;;;;;4990394;28;20398;-79
2022/05/23 15:35:25;;;;;;;22.17;4.60;;;27.80;99.90;;;;;;5011933;28;20026;-80
2022/05/23 15:37:53;;;;;;;13.30;4.55;;;27.70;99.90;;;;;;4993173;28;20406;-84
2022/05/23 15:40:20;;;;;;;11.55;4.57;;;27.60;99.90;;;;;;5008936;28;20517;-87
2022/05/23 15:42:54;;;;;;;20.75;4.30;;;27.60;99.90;;;;;;5012659;28;20040;-80
2022/05/23 15:45:30;;;;;;;18.92;5.35;;;27.60;99.90;;;;;;5010353;28;20045;-82
2022/05/23 15:48:37;;;;;;;13.18;4.55;;;27.60;99.90;;;;;;5011838;28;20023;-83
2022/05/23 15:51:15;;;;;;;17.33;5.05;;;27.40;99.90;;;;;;5012050;28;20034;-85
2022/05/23 15:53:51;;;;;;;13.63;4.78;;;27.40;99.90;;;;;;5011043;28;20030;-85
2022/05/23 15:56:18;;;;;;;9.02;4.22;;;27.40;99.90;;;;;;5011998;28;20037;-81
2022/05/23 15:58:44;;;;;;;10.13;4.40;;;27.30;99.90;;;;;;5011055;28;20033;-86
2022/05/23 16:01:15;;;;;;;16.85;5.50;;;27.20;99.90;;;;;;5011708;28;20402;-79
2022/05/23 16:03:40;;;;;;;12.85;4.95;;;27.20;99.90;;;;;;5011366;28;20034;-86
2022/05/23 16:06:07;;;;;;;20.13;5.45;;;27.10;99.90;;;;;;5014095;28;20026;-85
2022/05/23 16:08:33;;;;;;;15.52;5.35;;;27.10;99.90;;;;;;5015872;28;20029;-83
2022/05/23 16:11:07;;;;;;;16.85;5.10;;;27.00;99.90;;;;;;5015895;28;20045;-81
2022/05/23 16:13:35;;;;;;;15.25;5.10;;;27.00;99.90;;;;;;5014985;28;20180;-82
2022/05/23 16:16:10;;;;;;;17.92;4.90;;;27.00;99.90;;;;;;5031666;28;20512;-81
2022/05/23 16:18:35;;;;;;;8.85;4.57;;;27.00;99.90;;;;;;5034535;28;20029;-81
2022/05/23 16:21:36;;;;;;;18.17;4.40;;;27.00;99.90;;;;;;5034446;28;20044;-82
2022/05/23 16:24:03;;;;;;;14.80;4.63;;;27.10;99.90;;;;;;5035791;28;20485;-82
2022/05/23 16:26:29;;;;;;;14.60;4.82;;;27.20;99.90;;;;;;5035383;28;20041;-80
2022/05/23 16:28:55;;;;;;;13.57;5.13;;;27.20;99.90;;;;;;5035596;28;20123;-82
2022/05/23 16:31:24;;;;;;;15.77;5.10;;;27.20;99.90;;;;;;5035600;28;20029;-83
2022/05/23 16:36:40;;;;;;;7.82;4.22;;;27.20;99.90;;;;;;5035634;28;20040;-82
2022/05/23 16:39:10;;;;;;;15.32;4.30;;;27.30;99.90;;;;;;5035263;28;20103;-81
2022/05/23 16:41:37;;;;;;;18.27;4.88;;;27.30;99.90;;;;;;5035093;28;20044;-84
2022/05/23 16:45:00;;;;;;;12.48;4.65;;;27.30;99.90;;;;;;5035466;28;20433;-82
2022/05/23 16:47:01;;;;;;;14.98;4.80;;;27.30;99.90;;;;;;5013351;28;20034;-83
2022/05/23 16:49:27;;;;;;;9.25;4.68;;;27.30;99.90;;;;;;5035084;28;20493;-82
2022/05/23 16:51:56;;;;;;;12.50;5.70;;;27.20;99.90;;;;;;5035057;28;20147;-82
2022/05/23 16:54:22;;;;;;;22.42;5.05;;;27.20;99.90;;;;;;5034430;28;20060;-80
2022/05/23 16:56:48;;;;;;;14.90;5.65;;;27.10;99.90;;;;;;5035221;28;20022;-86
2022/05/23 16:59:14;;;;;;;14.18;4.50;;;27.10;99.90;;;;;;5035664;28;20045;-82
2022/05/23 17:01:39;;;;;;;18.23;5.30;;;27.10;99.90;;;;;;5012104;28;20528;-86
2022/05/23 17:04:05;;;;;;;15.82;5.22;;;27.00;99.90;;;;;;5033600;28;20112;-87
2022/05/23 17:06:31;;;;;;;16.98;4.97;;;26.90;99.90;;;;;;5016769;28;20042;-82
2022/05/23 17:08:57;;;;;;;11.57;4.72;;;26.90;99.90;;;;;;5034907;28;20064;-87
2022/05/23 17:11:23;;;;;;;12.93;5.30;;;26.90;99.90;;;;;;5034623;28;20105;-81
2022/05/23 17:13:50;;;;;;;19.98;5.72;;;26.80;99.90;;;;;;5034288;28;20029;-84
2022/05/23 17:16:16;;;;;;;14.18;4.90;;;26.70;99.90;;;;;;5014502;28;20498;-86
2022/05/23 17:18:44;;;;;;;11.35;4.57;;;26.60;99.90;;;;;;5034626;28;20030;-83
2022/05/23 17:21:10;;;;;;;17.70;5.28;;;26.60;99.90;;;;;;5034323;28;20033;-86
2022/05/23 17:23:40;;;;;;;14.45;5.03;;;26.50;99.90;;;;;;5016639;28;20490;-87
2022/05/23 17:26:06;;;;;;;10.57;5.18;;;26.50;99.90;;;;;;5033964;28;20034;-87
2022/05/23 17:28:35;;;;;;;14.98;5.20;;;26.50;99.90;;;;;;5016012;28;20144;-86
2022/05/23 17:31:02;;;;;;;16.63;4.47;;;26.50;99.90;;;;;;5016930;28;20033;-87
2022/05/23 17:33:28;;;;;;;14.00;5.10;;;26.40;99.90;;;;;;5015949;28;20486;-86
2022/05/23 17:35:53;;;;;;;21.20;6.97;;;26.30;99.90;;;;;;5031889;28;20041;-84
2022/05/23 17:38:19;;;;;;;12.18;5.88;;;26.30;99.90;;;;;;5015737;28;20034;-85
2022/05/23 17:40:45;;;;;;;9.93;4.70;;;26.30;99.90;;;;;;5015826;28;20544;-84
2022/05/23 17:43:11;;;;;;;14.75;4.82;;;26.10;99.90;;;;;;5033905;28;20112;-83
2022/05/23 17:45:39;;;;;;;12.02;5.00;;;26.10;99.90;;;;;;5033641;28;20127;-85
2022/05/23 17:48:07;;;;;;;20.17;6.15;;;26.00;99.90;;;;;;5032913;28;20076;-84
2022/05/23 17:50:34;;;;;;;16.90;5.32;;;25.90;99.90;;;;;;5016183;28;20121;-85
2022/05/23 17:53:00;;;;;;;14.57;5.65;;;25.90;99.90;;;;;;5015668;28;20041;-82
2022/05/23 17:55:26;;;;;;;10.43;5.70;;;25.70;99.90;;;;;;5033437;28;20040;-85
2022/05/23 17:57:53;;;;;;;12.00;5.28;;;25.70;99.90;;;;;;5033551;28;20034;-83
2022/05/23 18:00:24;;;;;;;16.83;5.60;;;25.70;99.90;;;;;;5033656;28;20095;-85
2022/05/23 18:02:54;;;;;;;22.70;6.28;;;25.70;99.90;;;;;;5016221;28;20065;-86
2022/05/23 18:05:24;;;;;;;20.33;6.60;;;25.60;99.90;;;;;;5033420;28;20528;-85
2022/05/23 18:07:51;;;;;;;14.25;6.18;;;25.60;99.90;;;;;;5032784;28;20034;-86
2022/05/23 18:10:20;;;;;;;19.90;6.05;;;25.60;99.90;;;;;;5015986;28;20033;-85
2022/05/23 18:12:56;;;;;;;14.57;5.07;;;25.60;99.90;;;;;;5033876;28;20334;-86
2022/05/23 18:20:58;;;;;;;13.85;6.10;;;25.50;99.90;;;;;;5025779;28;20071;-83
2022/05/23 18:23:24;;;;;;;17.10;5.45;;;25.40;99.90;;;;;;5032556;28;20030;-83
2022/05/23 18:25:50;;;;;;;11.95;5.75;;;25.30;99.90;;;;;;5031934;28;20033;-84
2022/05/23 18:28:16;;;;;;;18.95;6.18;;;25.30;99.90;;;;;;5031944;28;20029;-84
2022/05/23 18:30:42;;;;;;;12.35;6.25;;;25.10;99.90;;;;;;5032058;28;20393;-85
2022/05/23 18:33:07;;;;;;;16.40;5.93;;;25.10;99.90;;;;;;5012744;28;20029;-82
2022/05/23 18:35:33;;;;;;;27.85;7.57;;;25.00;99.90;;;;;;5031096;28;20105;-84
2022/05/23 18:37:59;;;;;;;22.98;6.20;;;25.00;99.90;;;;;;5013168;28;20429;-85
2022/05/23 18:40:25;;;;;;;14.30;5.32;;;24.90;99.90;;;;;;5012805;28;20068;-86
2022/05/23 18:42:51;;;;;;;12.02;5.38;;;24.80;99.90;;;;;;5014394;28;20465;-85
2022/05/23 18:45:20;;;;;;;13.23;5.90;;;24.80;99.90;;;;;;5014580;28;20124;-84
2022/05/23 18:49:41;;;;;;;16.92;5.75;;;24.70;99.90;;;;;;5031961;28;20436;-85
2022/05/23 18:50:34;;;;;;;12.60;5.20;;;24.60;99.90;;;;;;5031531;28;20033;-87
2022/05/23 18:53:00;;;;;;;12.82;6.70;;;24.60;99.90;;;;;;5014934;28;20041;-87
2022/05/23 18:55:26;;;;;;;14.40;5.78;;;24.60;99.90;;;;;;5032587;28;20025;-87
2022/05/23 18:57:54;;;;;;;14.70;6.22;;;24.50;99.90;;;;;;5014546;28;20038;-86
2022/05/23 19:00:24;;;;;;;11.43;6.47;;;24.50;99.90;;;;;;5013963;28;20045;-82
2022/05/23 19:02:53;;;;;;;32.75;7.85;;;24.40;99.90;;;;;;5008048;28;20033;-87
2022/05/23 19:05:19;;;;;;;22.98;7.47;;;24.30;99.90;;;;;;5013514;28;20128;-87
2022/05/23 19:07:46;;;;;;;17.52;8.25;;;24.30;99.90;;;;;;5010743;28;20491;-87
2022/05/23 19:10:17;;;;;;;22.58;8.60;;;24.20;99.90;;;;;;5030047;28;20030;-86
2022/05/23 19:12:43;;;;;;;18.02;7.32;;;24.20;99.90;;;;;;5013109;28;20041;-88
2022/05/23 19:15:10;;;;;;;21.15;7.45;;;24.10;99.90;;;;;;5013111;28;20050;-87
2022/05/23 19:17:39;;;;;;;23.17;7.60;;;24.10;99.90;;;;;;5007793;28;20394;-87
2022/05/23 19:20:06;;;;;;;18.88;8.85;;;24.10;99.90;;;;;;5026869;28;20087;-86
2022/05/23 19:22:32;;;;;;;22.42;9.30;;;24.10;99.90;;;;;;5013715;28;20025;-86
2022/05/23 19:24:58;;;;;;;17.80;10.27;;;23.90;99.90;;;;;;5013633;28;20394;-86
2022/05/23 19:27:24;;;;;;;14.68;8.77;;;23.70;99.90;;;;;;5013640;28;20029;-83
2022/05/23 19:29:49;;;;;;;23.55;8.38;;;23.70;99.90;;;;;;5013699;28;20587;-87
2022/05/23 19:32:17;;;;;;;16.85;6.75;;;23.60;99.90;;;;;;5013666;28;20712;-87
2022/05/23 19:34:44;;;;;;;15.70;6.90;;;23.60;99.90;;;;;;5013208;28;20037;-85
2022/05/23 19:37:10;;;;;;;22.08;6.78;;;23.60;99.90;;;;;;5031051;28;20022;-86
2022/05/23 19:39:39;;;;;;;23.10;5.65;;;23.50;99.90;;;;;;5032229;28;20037;-88
2022/05/23 19:42:11;;;;;;;14.98;6.63;;;23.50;99.90;;;;;;5018009;28;20480;-87
2022/05/23 19:44:37;;;;;;;12.05;6.10;;;23.40;99.90;;;;;;5016862;28;20030;-82
2022/05/23 19:47:03;;;;;;;15.80;5.47;;;23.40;99.90;;;;;;5017024;28;20060;-83
2022/05/23 19:49:30;;;;;;;21.85;6.53;;;23.40;99.90;;;;;;5016452;28;20033;-84
2022/05/23 19:52:01;;;;;;;15.05;5.93;;;23.30;99.90;;;;;;5017179;28;20034;-86
2022/05/23 19:57:47;;;;;;;15.27;6.68;;;23.30;99.90;;;;;;4959039;28;20046;-89
2022/05/23 23:43:24;;;;;;;;;;;;;;;;;;;;;
